Time;durP1;ratioP1;P1;durP2;ratioP2;P2;SDS_P1;SDS_P2;PMS_P1;PMS_P2;Temp;Humidity;BMP_temperature;BMP_pressure;BME280_temperature;BME280_humidity;BME280_pressure;Samples;Min_cycle;Max_cycle;Signal;HPM_P1;HPM_P2
2021/12/18 00:01:16;;;;;;;15.93;7.63;;;3.80;99.90;;;;;;5023405;28;20068;-52
2021/12/18 00:03:42;;;;;;;13.88;6.43;;;3.80;99.90;;;;;;5034350;28;20022;-52
2021/12/18 00:06:08;;;;;;;14.80;6.35;;;3.70;99.90;;;;;;5035995;28;20028;-50
2021/12/18 00:08:35;;;;;;;17.65;7.50;;;3.80;99.90;;;;;;5031048;28;20029;-50
2021/12/18 00:11:00;;;;;;;14.10;7.18;;;3.80;99.90;;;;;;5031937;28;20022;-50
2021/12/18 00:13:26;;;;;;;11.25;7.32;;;3.60;99.90;;;;;;5025857;28;20368;-50
2021/12/18 00:15:52;;;;;;;22.70;7.35;;;3.70;99.90;;;;;;5016927;28;20022;-51
2021/12/18 00:18:18;;;;;;;10.63;6.32;;;3.80;99.90;;;;;;5014690;28;20030;-48
2021/12/18 00:20:44;;;;;;;16.17;7.00;;;3.80;99.90;;;;;;5025489;28;20029;-53
2021/12/18 00:23:10;;;;;;;13.35;6.38;;;3.80;99.90;;;;;;5035852;28;20056;-50
2021/12/18 00:25:35;;;;;;;12.25;6.10;;;3.80;99.90;;;;;;5035289;28;20033;-53
2021/12/18 00:28:01;;;;;;;15.02;5.90;;;3.80;99.90;;;;;;5035881;28;20483;-50
2021/12/18 00:30:27;;;;;;;14.27;6.65;;;3.80;99.90;;;;;;5023473;28;20026;-55
2021/12/18 00:32:52;;;;;;;14.55;6.53;;;3.90;99.90;;;;;;5017896;28;20022;-49
2021/12/18 00:35:18;;;;;;;13.90;6.28;;;3.90;99.90;;;;;;5031853;28;20034;-51
2021/12/18 00:37:45;;;;;;;14.77;6.57;;;3.90;99.90;;;;;;5014832;28;20511;-54
2021/12/18 00:40:18;;;;;;;9.90;5.93;;;3.90;99.90;;;;;;5020599;28;20108;-50
2021/12/18 00:42:58;;;;;;;15.13;6.50;;;3.90;99.90;;;;;;5021794;28;20037;-50
2021/12/18 00:45:25;;;;;;;10.90;5.78;;;3.90;99.90;;;;;;5015530;28;20026;-49
2021/12/18 00:47:51;;;;;;;11.50;5.50;;;3.90;99.90;;;;;;5015370;28;20030;-52
2021/12/18 00:50:20;;;;;;;12.82;6.03;;;3.90;99.90;;;;;;5015519;28;20049;-52
2021/12/18 00:52:47;;;;;;;14.95;6.43;;;4.00;99.90;;;;;;5015875;28;20015;-53
2021/12/18 00:55:15;;;;;;;14.13;6.32;;;4.10;99.90;;;;;;5013929;28;20026;-49
2021/12/18 00:57:42;;;;;;;10.27;5.40;;;4.10;99.90;;;;;;5030619;28;20033;-54
2021/12/18 01:00:10;;;;;;;13.45;6.05;;;4.10;99.90;;;;;;5014081;28;20057;-50
2021/12/18 01:02:37;;;;;;;11.52;5.45;;;4.10;99.90;;;;;;5014955;28;20030;-52
2021/12/18 01:05:05;;;;;;;14.63;8.00;;;4.00;99.90;;;;;;5013820;28;20036;-51
2021/12/18 01:07:31;;;;;;;14.52;6.95;;;4.10;99.90;;;;;;5014861;28;20026;-48
2021/12/18 01:10:16;;;;;;;25.05;9.98;;;4.10;99.90;;;;;;5013911;28;20018;-55
2021/12/18 01:12:45;;;;;;;26.02;9.25;;;4.10;99.90;;;;;;5014015;28;20022;-51
2021/12/18 01:23:07;;;;;;;14.27;6.50;;;4.40;99.90;;;;;;5025445;28;20041;-52
2021/12/18 01:25:33;;;;;;;14.60;7.38;;;4.40;99.90;;;;;;5013748;28;20026;-50
2021/12/18 01:27:59;;;;;;;15.27;6.50;;;4.40;99.90;;;;;;5014826;28;20028;-48
2021/12/18 01:30:24;;;;;;;16.17;7.07;;;4.40;99.90;;;;;;5014067;28;20197;-50
2021/12/18 01:32:50;;;;;;;14.00;6.45;;;4.50;99.90;;;;;;5015071;28;20025;-49
2021/12/18 01:35:17;;;;;;;15.13;7.68;;;4.50;99.90;;;;;;5014141;28;20050;-50
2021/12/18 01:37:44;;;;;;;16.20;7.68;;;4.60;99.90;;;;;;5014625;28;20460;-52
2021/12/18 01:40:11;;;;;;;18.58;6.78;;;4.50;99.90;;;;;;5014294;28;20026;-51
2021/12/18 01:53:02;;;;;;;14.25;7.10;;;4.50;99.90;;;;;;5014625;28;20049;-54
2021/12/18 01:55:31;;;;;;;14.50;6.88;;;4.50;99.90;;;;;;5014431;28;20472;-48
2021/12/18 01:57:57;;;;;;;15.93;6.50;;;4.60;99.90;;;;;;5014760;28;20073;-48
2021/12/18 02:00:27;;;;;;;11.93;5.82;;;4.70;99.90;;;;;;5014609;28;20037;-50
2021/12/18 02:02:52;;;;;;;13.68;6.68;;;4.80;99.90;;;;;;5014264;28;20026;-48
2021/12/18 02:05:18;;;;;;;14.27;5.97;;;4.80;99.90;;;;;;5012800;28;20374;-48
2021/12/18 02:07:44;;;;;;;14.48;6.75;;;5.00;99.90;;;;;;5012887;28;20022;-49
2021/12/18 02:10:18;;;;;;;14.27;7.07;;;5.10;99.90;;;;;;5014116;28;20022;-52
2021/12/18 02:20:50;;;;;;;14.63;6.30;;;5.00;99.90;;;;;;5014292;28;20036;-48
2021/12/18 02:23:17;;;;;;;11.30;6.85;;;5.00;99.90;;;;;;5014009;28;20026;-50
2021/12/18 02:25:45;;;;;;;15.32;6.57;;;4.90;99.90;;;;;;5014033;28;20026;-51
2021/12/18 02:28:19;;;;;;;11.25;5.10;;;4.80;99.90;;;;;;5012830;28;20036;-48
2021/12/18 02:30:46;;;;;;;11.85;5.90;;;4.90;99.90;;;;;;5012624;28;20018;-49
2021/12/18 02:33:12;;;;;;;12.65;6.03;;;4.90;99.90;;;;;;5012156;28;20061;-48
2021/12/18 02:35:46;;;;;;;12.00;5.70;;;5.00;99.90;;;;;;5012442;28;20054;-51
2021/12/18 02:38:27;;;;;;;10.93;5.25;;;5.00;99.90;;;;;;5012516;28;20030;-50
2021/12/18 02:43:31;;;;;;;12.57;5.35;;;5.40;99.90;;;;;;5014254;28;20076;-48
2021/12/18 02:46:06;;;;;;;10.45;5.93;;;5.50;99.90;;;;;;5028753;28;20033;-49
2021/12/18 02:48:32;;;;;;;13.15;5.43;;;5.40;99.90;;;;;;5013844;28;20017;-50
2021/12/18 02:50:58;;;;;;;12.70;6.10;;;5.30;99.90;;;;;;5012648;28;20026;-53
2021/12/18 02:53:25;;;;;;;16.08;7.05;;;5.30;99.90;;;;;;5028793;28;20026;-50
2021/12/18 02:56:03;;;;;;;14.88;7.13;;;5.40;99.90;;;;;;5028658;28;20022;-49
2021/12/18 02:58:30;;;;;;;11.48;6.43;;;5.50;99.90;;;;;;5012253;28;20054;-48
2021/12/18 03:00:58;;;;;;;14.38;6.05;;;5.70;99.90;;;;;;5012440;28;20038;-50
2021/12/18 03:03:27;;;;;;;13.73;7.05;;;5.70;99.90;;;;;;5012164;28;20064;-51
2021/12/18 03:06:04;;;;;;;16.00;7.20;;;5.70;99.90;;;;;;5013222;28;20026;-52
2021/12/18 03:08:46;;;;;;;13.48;7.28;;;5.60;99.90;;;;;;5014034;28;20520;-49
2021/12/18 03:24:44;;;;;;;13.95;7.35;;;5.80;99.90;;;;;;5013691;28;20084;-51
2021/12/18 03:27:09;;;;;;;19.58;7.45;;;5.90;99.90;;;;;;5028826;28;20030;-48
2021/12/18 03:29:35;;;;;;;17.40;8.02;;;5.90;99.90;;;;;;5013444;28;20030;-51
2021/12/18 03:32:01;;;;;;;17.73;9.05;;;5.80;99.90;;;;;;5029174;28;20095;-48
2021/12/18 03:34:27;;;;;;;17.15;7.35;;;5.70;99.90;;;;;;5013115;28;20049;-52
2021/12/18 03:36:52;;;;;;;21.88;9.13;;;5.60;99.90;;;;;;5028271;28;20064;-50
2021/12/18 03:39:19;;;;;;;20.30;8.43;;;5.70;99.90;;;;;;5028358;28;20178;-51
2021/12/18 03:41:44;;;;;;;16.33;8.48;;;5.80;99.90;;;;;;5013111;28;20109;-50
2021/12/18 03:44:11;;;;;;;20.05;8.55;;;5.70;99.90;;;;;;5029474;28;20057;-51
2021/12/18 03:46:36;;;;;;;20.33;8.60;;;5.80;99.90;;;;;;5016982;28;20109;-50
2021/12/18 03:49:02;;;;;;;20.23;7.97;;;5.80;99.90;;;;;;5031810;28;20064;-49
2021/12/18 03:51:28;;;;;;;22.17;9.77;;;5.80;99.90;;;;;;5016646;28;20022;-54
2021/12/18 03:53:54;;;;;;;23.02;9.57;;;5.70;99.90;;;;;;5016665;28;20105;-48
2021/12/18 03:56:19;;;;;;;21.67;9.68;;;5.60;99.90;;;;;;5031807;28;20026;-49
2021/12/18 03:58:45;;;;;;;21.20;9.02;;;5.60;99.90;;;;;;5031698;28;20030;-49
2021/12/18 04:01:11;;;;;;;18.48;8.60;;;5.70;99.90;;;;;;5016437;28;20075;-52
2021/12/18 04:03:37;;;;;;;20.90;9.15;;;5.80;99.90;;;;;;5032033;28;20030;-50
2021/12/18 04:06:03;;;;;;;22.25;9.07;;;5.80;99.90;;;;;;5016383;28;20388;-48
2021/12/18 04:08:28;;;;;;;25.50;8.90;;;5.80;99.90;;;;;;5032169;28;20057;-49
2021/12/18 04:10:54;;;;;;;22.70;9.52;;;5.90;99.90;;;;;;5016421;28;20022;-50
2021/12/18 04:13:19;;;;;;;24.02;8.77;;;5.90;99.90;;;;;;5031436;28;20123;-50
2021/12/18 04:15:45;;;;;;;22.25;8.80;;;5.90;99.90;;;;;;5016259;28;20076;-50
2021/12/18 04:18:11;;;;;;;19.95;8.60;;;6.00;99.90;;;;;;5014901;28;20041;-50
2021/12/18 04:20:36;;;;;;;23.25;9.40;;;6.00;99.90;;;;;;5031408;28;20401;-50
2021/12/18 04:23:03;;;;;;;23.02;9.10;;;6.00;99.90;;;;;;5031332;28;20022;-52
2021/12/18 04:25:28;;;;;;;22.02;9.90;;;6.00;99.90;;;;;;5016176;28;20057;-50
2021/12/18 04:27:54;;;;;;;22.00;8.30;;;6.00;99.90;;;;;;5031189;28;20017;-52
2021/12/18 04:30:23;;;;;;;23.67;9.65;;;6.00;99.90;;;;;;5029808;28;20089;-49
2021/12/18 04:32:49;;;;;;;22.50;9.35;;;5.90;99.90;;;;;;5034766;28;20029;-51
2021/12/18 04:35:14;;;;;;;23.65;10.07;;;6.00;99.90;;;;;;5034369;28;20025;-50
2021/12/18 04:37:40;;;;;;;25.85;9.88;;;6.00;99.90;;;;;;5035917;28;20112;-49
2021/12/18 04:40:06;;;;;;;22.73;9.52;;;6.10;99.90;;;;;;5034266;28;20029;-51
2021/12/18 04:42:32;;;;;;;31.85;10.57;;;6.10;99.90;;;;;;5035676;28;20031;-51
2021/12/18 04:44:58;;;;;;;24.05;9.63;;;6.10;99.90;;;;;;5034050;28;20036;-50
2021/12/18 04:47:23;;;;;;;25.42;10.05;;;6.10;99.90;;;;;;5035330;28;20025;-54
2021/12/18 04:49:49;;;;;;;25.40;10.00;;;6.20;99.90;;;;;;5034514;28;20029;-53
2021/12/18 04:52:14;;;;;;;22.23;8.98;;;6.20;99.90;;;;;;5035338;28;20030;-52
2021/12/18 04:54:40;;;;;;;23.35;9.07;;;6.10;99.90;;;;;;5035063;28;20503;-50
2021/12/18 04:57:06;;;;;;;28.42;11.38;;;6.10;99.90;;;;;;5034202;28;20037;-50
2021/12/18 04:59:32;;;;;;;23.00;9.93;;;6.10;99.90;;;;;;5033901;28;20029;-52
2021/12/18 05:01:58;;;;;;;25.10;10.48;;;6.10;99.90;;;;;;5035043;28;20025;-48
2021/12/18 05:04:24;;;;;;;33.58;11.95;;;6.00;99.90;;;;;;5035034;28;20026;-50
2021/12/18 05:06:51;;;;;;;28.48;12.68;;;6.00;99.90;;;;;;5033983;28;20026;-54
2021/12/18 05:09:17;;;;;;;24.23;10.80;;;6.10;99.90;;;;;;5034800;28;20037;-49
2021/12/18 05:11:44;;;;;;;26.65;9.52;;;6.10;99.90;;;;;;5035265;28;20029;-48
2021/12/18 05:14:10;;;;;;;26.80;11.00;;;6.10;99.90;;;;;;5033704;28;20025;-50
2021/12/18 05:16:37;;;;;;;23.63;10.13;;;6.20;99.90;;;;;;5034800;28;20080;-51
2021/12/18 05:19:03;;;;;;;25.52;11.25;;;6.30;99.90;;;;;;5035259;28;20052;-49
2021/12/18 05:21:29;;;;;;;24.90;10.65;;;6.30;99.90;;;;;;5035069;28;20040;-51
2021/12/18 05:23:55;;;;;;;32.97;10.75;;;6.40;99.90;;;;;;5034293;28;20022;-50
2021/12/18 05:26:21;;;;;;;25.95;10.70;;;6.30;99.90;;;;;;5033340;28;20021;-51
2021/12/18 05:28:46;;;;;;;31.77;11.27;;;6.40;99.90;;;;;;5033395;28;20021;-50
2021/12/18 05:31:16;;;;;;;29.10;11.25;;;6.40;99.90;;;;;;5033319;28;20033;-51
2021/12/18 05:33:47;;;;;;;34.88;12.60;;;6.30;99.90;;;;;;5033345;28;20396;-52
2021/12/18 05:36:34;;;;;;;40.63;12.05;;;6.20;99.90;;;;;;5033266;28;20053;-49
2021/12/18 05:39:05;;;;;;;27.77;11.02;;;6.30;99.90;;;;;;5034084;28;20036;-50
2021/12/18 05:41:31;;;;;;;28.42;10.77;;;6.30;99.90;;;;;;5034540;28;20033;-52
2021/12/18 05:43:57;;;;;;;37.13;11.20;;;6.30;99.90;;;;;;5033491;28;20025;-51
2021/12/18 05:46:23;;;;;;;30.10;11.43;;;6.30;99.90;;;;;;5034110;28;20025;-49
2021/12/18 05:48:48;;;;;;;32.53;11.23;;;6.30;99.90;;;;;;5033013;28;20030;-54
2021/12/18 05:51:14;;;;;;;33.55;12.30;;;6.30;99.90;;;;;;5034917;28;20041;-51
2021/12/18 05:53:40;;;;;;;27.08;10.80;;;6.30;99.90;;;;;;5032895;28;20018;-53
2021/12/18 05:56:06;;;;;;;26.30;10.70;;;6.20;99.90;;;;;;5033355;28;20040;-50
2021/12/18 05:58:31;;;;;;;29.77;10.60;;;6.20;99.90;;;;;;5034127;28;20067;-52
2021/12/18 06:00:57;;;;;;;28.23;11.20;;;6.30;99.90;;;;;;5033124;28;20064;-50
2021/12/18 06:03:22;;;;;;;30.35;11.00;;;6.30;99.90;;;;;;5034046;28;20056;-49
2021/12/18 06:05:48;;;;;;;27.05;10.25;;;6.30;99.90;;;;;;5034145;28;20108;-50
2021/12/18 06:08:14;;;;;;;35.33;13.55;;;6.40;99.90;;;;;;5032169;28;20472;-52
2021/12/18 06:10:40;;;;;;;32.03;12.07;;;6.40;99.90;;;;;;5033458;28;20129;-48
2021/12/18 06:13:06;;;;;;;27.90;11.82;;;6.50;99.90;;;;;;5034136;28;20080;-50
2021/12/18 06:15:32;;;;;;;27.88;11.07;;;6.50;99.90;;;;;;5032440;28;20029;-51
2021/12/18 06:18:00;;;;;;;23.83;9.93;;;6.40;99.90;;;;;;5032817;28;20072;-50
2021/12/18 06:20:27;;;;;;;28.77;11.30;;;6.40;99.90;;;;;;5032449;28;20075;-50
2021/12/18 06:22:53;;;;;;;31.60;11.50;;;6.40;99.90;;;;;;5033699;28;20044;-51
2021/12/18 06:25:19;;;;;;;29.60;11.35;;;6.40;99.90;;;;;;5032255;28;20049;-52
2021/12/18 06:27:44;;;;;;;31.92;10.88;;;6.40;99.90;;;;;;5033697;28;20160;-49
2021/12/18 06:30:11;;;;;;;33.38;11.65;;;6.50;99.90;;;;;;5033595;28;20064;-50
2021/12/18 06:32:39;;;;;;;30.60;12.07;;;6.40;99.90;;;;;;5032287;28;20018;-50
2021/12/18 06:35:05;;;;;;;34.00;11.07;;;6.40;99.90;;;;;;5032173;28;20407;-54
2021/12/18 06:37:31;;;;;;;26.77;11.98;;;6.50;99.90;;;;;;5033461;28;20033;-51
2021/12/18 06:39:57;;;;;;;28.25;11.05;;;6.50;99.90;;;;;;5033248;28;20120;-49
2021/12/18 06:42:22;;;;;;;25.52;11.38;;;6.50;99.90;;;;;;5032099;28;20036;-50
2021/12/18 06:44:48;;;;;;;28.17;11.18;;;6.50;99.90;;;;;;5031965;28;20034;-50
2021/12/18 06:47:15;;;;;;;28.80;12.02;;;6.50;99.90;;;;;;5032762;28;20484;-51
2021/12/18 06:49:40;;;;;;;29.88;12.13;;;6.50;99.90;;;;;;5032156;28;20083;-50
2021/12/18 06:52:06;;;;;;;31.30;12.05;;;6.50;99.90;;;;;;5033351;28;20025;-48
2021/12/18 06:54:32;;;;;;;26.15;10.80;;;6.50;99.90;;;;;;5032285;28;20072;-50
2021/12/18 06:56:59;;;;;;;24.02;10.82;;;6.50;99.90;;;;;;5032320;28;20100;-49
2021/12/18 06:59:25;;;;;;;26.55;10.45;;;6.50;99.90;;;;;;5033218;28;20024;-48
2021/12/18 07:01:52;;;;;;;29.75;12.48;;;6.60;99.90;;;;;;5033272;28;20100;-49
2021/12/18 07:04:19;;;;;;;30.05;12.05;;;6.50;99.90;;;;;;5033474;28;20045;-51
2021/12/18 07:06:45;;;;;;;27.88;10.13;;;6.50;99.90;;;;;;5032106;28;20022;-50
2021/12/18 07:09:10;;;;;;;27.35;10.10;;;6.50;99.90;;;;;;5033100;28;20024;-49
2021/12/18 07:11:36;;;;;;;34.05;11.48;;;6.60;99.90;;;;;;5031841;28;20029;-49
2021/12/18 07:14:02;;;;;;;35.58;10.48;;;6.60;99.90;;;;;;5031852;28;20072;-49
2021/12/18 07:16:28;;;;;;;27.52;11.45;;;6.70;99.90;;;;;;5032205;28;20021;-48
2021/12/18 07:18:53;;;;;;;26.88;10.13;;;6.80;99.90;;;;;;5033965;28;20376;-52
2021/12/18 07:21:19;;;;;;;33.50;12.13;;;6.70;99.90;;;;;;5035970;28;20094;-49
2021/12/18 07:23:44;;;;;;;28.60;12.45;;;6.60;99.90;;;;;;5035705;28;20022;-48
2021/12/18 07:26:12;;;;;;;29.98;12.23;;;6.50;99.90;;;;;;5035574;28;20030;-50
2021/12/18 07:28:38;;;;;;;27.80;11.40;;;6.50;99.90;;;;;;5036879;28;20014;-48
2021/12/18 07:31:04;;;;;;;35.65;11.98;;;6.50;99.90;;;;;;5035937;28;20484;-51
2021/12/18 07:33:29;;;;;;;36.40;11.95;;;6.50;99.90;;;;;;5035515;28;20021;-49
2021/12/18 07:35:55;;;;;;;39.75;11.98;;;6.50;99.90;;;;;;5035422;28;20021;-49
2021/12/18 07:38:21;;;;;;;28.02;9.75;;;6.40;99.90;;;;;;5035379;28;20056;-52
2021/12/18 07:40:46;;;;;;;26.80;11.40;;;6.50;99.90;;;;;;5035775;28;20033;-52
2021/12/18 07:43:12;;;;;;;37.63;12.43;;;6.50;99.90;;;;;;5036890;28;20029;-49
2021/12/18 07:45:38;;;;;;;31.08;13.35;;;6.50;99.90;;;;;;5036492;28;20057;-48
2021/12/18 07:48:04;;;;;;;32.10;11.73;;;6.50;99.90;;;;;;5035191;28;20022;-50
2021/12/18 07:50:31;;;;;;;32.60;11.68;;;6.50;99.90;;;;;;5035347;28;20112;-52
2021/12/18 07:52:57;;;;;;;31.58;11.10;;;6.60;99.90;;;;;;5036426;28;20025;-52
2021/12/18 07:55:22;;;;;;;29.20;11.02;;;6.50;99.90;;;;;;5036152;28;20037;-50
2021/12/18 07:57:50;;;;;;;36.38;12.35;;;6.50;99.90;;;;;;5016312;28;20093;-51
2021/12/18 08:00:16;;;;;;;38.05;11.75;;;6.60;99.90;;;;;;5016550;28;20022;-48
2021/12/18 08:02:42;;;;;;;26.92;11.18;;;6.70;99.90;;;;;;5016369;28;20038;-48
2021/12/18 08:05:15;;;;;;;26.33;11.35;;;6.70;99.90;;;;;;5033143;28;20083;-48
2021/12/18 08:07:41;;;;;;;25.17;9.95;;;6.80;99.90;;;;;;5026378;28;20045;-52
2021/12/18 08:10:07;;;;;;;30.17;11.57;;;6.90;99.90;;;;;;5014962;28;20022;-49
2021/12/18 08:12:33;;;;;;;29.85;12.25;;;6.80;99.90;;;;;;5015880;28;20018;-49
2021/12/18 08:14:59;;;;;;;32.97;11.48;;;6.80;99.90;;;;;;5016441;28;20026;-50
2021/12/18 08:17:25;;;;;;;31.80;12.18;;;6.70;99.90;;;;;;5015140;28;20041;-54
2021/12/18 08:19:51;;;;;;;32.50;12.82;;;6.80;99.90;;;;;;5035772;28;20040;-57
2021/12/18 08:22:17;;;;;;;30.27;11.38;;;6.80;99.90;;;;;;5034733;28;20029;-58
2021/12/18 08:24:43;;;;;;;31.63;12.80;;;6.80;99.90;;;;;;5034466;28;20025;-58
2021/12/18 08:27:09;;;;;;;31.85;13.45;;;6.90;99.90;;;;;;5035024;28;20468;-58
2021/12/18 08:29:35;;;;;;;37.00;13.55;;;7.00;99.90;;;;;;5034184;28;20027;-58
2021/12/18 08:32:00;;;;;;;32.45;13.52;;;7.00;99.90;;;;;;5034701;28;20030;-53
2021/12/18 08:34:26;;;;;;;35.03;15.45;;;7.10;99.90;;;;;;5034580;28;20088;-55
2021/12/18 08:36:51;;;;;;;30.02;13.07;;;7.10;99.90;;;;;;5035236;28;20026;-56
2021/12/18 08:39:17;;;;;;;34.40;13.00;;;7.10;99.90;;;;;;5034424;28;20026;-57
2021/12/18 08:41:45;;;;;;;32.33;12.98;;;7.00;99.90;;;;;;5035551;28;20040;-58
2021/12/18 08:44:11;;;;;;;41.22;14.45;;;7.10;99.90;;;;;;5035457;28;20444;-55
2021/12/18 08:46:37;;;;;;;35.63;12.95;;;7.00;99.90;;;;;;5035352;28;20487;-58
2021/12/18 08:49:03;;;;;;;34.42;13.30;;;7.10;99.90;;;;;;5035271;28;20036;-58
2021/12/18 08:51:29;;;;;;;46.28;14.73;;;7.10;99.90;;;;;;5034749;28;20025;-58
2021/12/18 08:53:54;;;;;;;41.22;14.13;;;7.20;99.90;;;;;;5035092;28;20022;-56
2021/12/18 08:56:20;;;;;;;38.42;13.90;;;7.20;99.90;;;;;;5033574;28;20418;-58
2021/12/18 08:58:45;;;;;;;40.85;13.25;;;7.30;99.90;;;;;;5026150;28;20141;-58
2021/12/18 09:01:11;;;;;;;43.67;13.88;;;7.40;99.90;;;;;;5014858;28;20076;-56
2021/12/18 09:03:37;;;;;;;35.67;12.65;;;7.40;99.90;;;;;;5022753;28;20025;-58
2021/12/18 09:06:03;;;;;;;39.80;14.50;;;7.40;99.90;;;;;;5027612;28;20030;-57
2021/12/18 09:08:29;;;;;;;43.63;15.65;;;7.50;99.90;;;;;;5014181;28;20026;-58
2021/12/18 09:10:54;;;;;;;38.65;15.93;;;7.50;99.90;;;;;;5015478;28;20037;-58
2021/12/18 09:13:20;;;;;;;37.00;14.32;;;7.40;99.90;;;;;;5029712;28;20022;-58
2021/12/18 09:15:46;;;;;;;39.30;15.68;;;7.50;99.90;;;;;;5016872;28;20036;-55
2021/12/18 09:18:11;;;;;;;42.97;13.57;;;7.60;99.90;;;;;;5014053;28;20032;-57
2021/12/18 09:20:37;;;;;;;33.80;13.65;;;7.50;99.90;;;;;;5013869;28;20030;-58
2021/12/18 09:23:03;;;;;;;35.88;14.52;;;7.70;99.90;;;;;;5014420;28;20121;-57
2021/12/18 09:25:29;;;;;;;44.40;15.52;;;7.60;99.90;;;;;;5014751;28;20070;-58
2021/12/18 09:27:56;;;;;;;43.88;16.35;;;7.60;99.90;;;;;;5014918;28;20026;-57
2021/12/18 09:30:23;;;;;;;39.97;15.00;;;7.60;99.90;;;;;;5013600;28;20428;-58
2021/12/18 09:32:49;;;;;;;37.45;13.27;;;7.70;99.90;;;;;;5015067;28;20072;-56
2021/12/18 09:35:15;;;;;;;45.45;15.48;;;7.70;99.90;;;;;;5013616;28;20056;-56
2021/12/18 09:37:41;;;;;;;38.20;13.68;;;7.70;99.90;;;;;;5015019;28;20030;-57
2021/12/18 09:40:09;;;;;;;37.70;14.30;;;7.70;99.90;;;;;;5013404;28;20033;-56
2021/12/18 09:42:37;;;;;;;36.28;12.68;;;7.70;99.90;;;;;;5013896;28;20025;-55
2021/12/18 09:45:05;;;;;;;38.25;13.32;;;7.80;99.90;;;;;;5013382;28;20478;-54
2021/12/18 09:47:31;;;;;;;36.33;13.23;;;7.80;99.90;;;;;;5013157;28;20037;-52
2021/12/18 09:49:57;;;;;;;62.20;13.25;;;7.90;99.90;;;;;;5014841;28;20041;-53
2021/12/18 09:52:25;;;;;;;32.63;11.18;;;7.90;99.90;;;;;;5013256;28;20021;-57
2021/12/18 09:54:56;;;;;;;32.47;12.77;;;7.90;99.90;;;;;;5014633;28;20025;-57
2021/12/18 09:57:21;;;;;;;30.13;11.43;;;7.90;99.90;;;;;;5013295;28;20085;-54
2021/12/18 09:59:47;;;;;;;32.97;12.60;;;7.90;99.90;;;;;;5014343;28;20336;-54
2021/12/18 10:02:13;;;;;;;43.38;16.10;;;7.90;99.90;;;;;;5013909;28;20157;-52
2021/12/18 10:04:39;;;;;;;37.15;12.98;;;8.00;99.90;;;;;;5013011;28;20128;-57
2021/12/18 10:07:19;;;;;;;33.35;11.38;;;8.00;99.90;;;;;;5012993;28;20018;-58
2021/12/18 10:09:46;;;;;;;29.70;10.48;;;8.10;99.90;;;;;;5013004;28;20022;-56
2021/12/18 10:12:16;;;;;;;29.05;10.73;;;8.20;99.90;;;;;;5014209;28;20029;-56
2021/12/18 10:14:44;;;;;;;31.17;11.65;;;8.20;99.90;;;;;;5014301;28;20099;-56
2021/12/18 10:17:28;;;;;;;37.20;11.30;;;8.20;99.90;;;;;;5014112;28;20022;-58
2021/12/18 10:20:15;;;;;;;25.58;9.98;;;8.20;99.90;;;;;;5013710;28;20112;-54
2021/12/18 10:22:50;;;;;;;36.47;12.60;;;8.40;99.90;;;;;;5014241;28;20032;-54
2021/12/18 10:25:27;;;;;;;23.98;10.07;;;8.30;99.90;;;;;;5014012;28;20049;-55
2021/12/18 10:28:12;;;;;;;28.75;9.75;;;8.30;99.90;;;;;;5013365;28;20021;-57
2021/12/18 10:30:56;;;;;;;28.58;10.07;;;8.30;99.90;;;;;;5013405;28;20076;-56
2021/12/18 10:33:28;;;;;;;27.90;8.93;;;8.20;99.90;;;;;;5013616;28;20056;-53
2021/12/18 10:35:56;;;;;;;19.73;8.50;;;8.20;99.90;;;;;;5012723;28;20033;-56
2021/12/18 10:38:48;;;;;;;29.42;10.13;;;8.20;99.90;;;;;;5012492;28;20032;-54
2021/12/18 10:41:34;;;;;;;23.48;8.82;;;8.30;99.90;;;;;;5012568;28;20022;-54
2021/12/18 10:44:02;;;;;;;20.08;8.95;;;8.30;99.90;;;;;;5012433;28;20026;-57
2021/12/18 10:46:29;;;;;;;21.83;8.32;;;8.20;99.90;;;;;;5013238;28;20025;-55
2021/12/18 10:49:01;;;;;;;22.45;8.48;;;8.20;99.90;;;;;;5013934;28;20034;-54
2021/12/18 10:51:29;;;;;;;18.42;8.35;;;8.30;99.90;;;;;;5012562;28;20030;-53
2021/12/18 10:54:13;;;;;;;22.98;9.00;;;8.30;99.90;;;;;;5013377;28;20029;-54
2021/12/18 10:56:42;;;;;;;16.73;7.47;;;8.30;99.90;;;;;;5012572;28;20405;-55
2021/12/18 10:59:52;;;;;;;18.55;7.88;;;8.40;99.90;;;;;;5013595;28;20064;-57
2021/12/18 11:02:18;;;;;;;14.15;5.60;;;8.50;99.90;;;;;;5014123;28;20029;-57
2021/12/18 11:04:44;;;;;;;16.77;6.28;;;8.50;99.90;;;;;;5012008;28;20026;-53
2021/12/18 11:07:22;;;;;;;13.38;7.28;;;8.60;99.90;;;;;;5012143;28;20489;-57
2021/12/18 11:10:10;;;;;;;19.20;7.25;;;8.50;99.90;;;;;;5013416;28;20018;-54
2021/12/18 11:15:18;;;;;;;13.65;5.97;;;8.60;99.90;;;;;;5013830;28;20061;-56
2021/12/18 11:17:46;;;;;;;17.67;7.45;;;8.70;99.90;;;;;;5012101;28;20053;-57
2021/12/18 11:20:12;;;;;;;17.52;7.10;;;8.70;99.90;;;;;;5012339;28;20033;-56
2021/12/18 11:22:39;;;;;;;11.07;5.82;;;8.70;99.90;;;;;;5013280;28;20488;-55
2021/12/18 11:25:07;;;;;;;11.07;4.38;;;8.60;99.90;;;;;;5011996;28;20053;-57
2021/12/18 11:27:34;;;;;;;8.38;4.53;;;8.40;99.90;;;;;;5013128;28;20068;-57
2021/12/18 11:30:02;;;;;;;9.98;4.60;;;8.50;99.90;;;;;;5011774;28;20026;-56
2021/12/18 11:32:33;;;;;;;10.43;5.30;;;8.40;99.90;;;;;;5011978;28;20033;-57
2021/12/18 11:35:03;;;;;;;10.52;4.80;;;8.30;99.90;;;;;;5013399;28;20050;-56
2021/12/18 11:37:38;;;;;;;10.95;4.82;;;8.20;99.90;;;;;;5013395;28;20050;-57
2021/12/18 11:40:06;;;;;;;8.88;4.55;;;8.10;99.90;;;;;;5029543;28;20021;-55
2021/12/18 11:42:33;;;;;;;8.85;4.25;;;8.10;99.90;;;;;;5031560;28;20544;-55
2021/12/18 11:45:02;;;;;;;11.35;5.43;;;8.00;99.90;;;;;;5031395;28;20065;-56
2021/12/18 11:47:28;;;;;;;13.63;5.60;;;8.10;99.90;;;;;;5032801;28;20026;-57
2021/12/18 11:50:00;;;;;;;15.32;5.50;;;8.10;99.90;;;;;;5032785;28;20033;-57
2021/12/18 11:52:28;;;;;;;12.07;5.45;;;8.10;99.90;;;;;;5032595;28;20049;-56
2021/12/18 11:54:57;;;;;;;12.52;5.30;;;8.20;99.90;;;;;;5032880;28;20021;-56
2021/12/18 11:57:44;;;;;;;12.20;5.78;;;8.30;99.90;;;;;;5032339;28;20018;-57
2021/12/18 12:00:18;;;;;;;9.15;5.28;;;8.40;99.90;;;;;;5031417;28;20014;-56
2021/12/18 12:02:50;;;;;;;14.30;6.40;;;8.40;99.90;;;;;;5032723;28;20018;-55
2021/12/18 12:05:17;;;;;;;;;;;8.40;99.90;;;;;;5033104;28;20022;-52
2021/12/18 12:07:44;;;;;;;12.68;5.63;;;8.50;99.90;;;;;;5035388;28;19905;-56
2021/12/18 12:10:46;;;;;;;11.52;5.03;;;8.50;99.90;;;;;;5036402;28;20018;-55
2021/12/18 12:13:12;;;;;;;;;;;8.50;99.90;;;;;;5036179;28;20152;-57
2021/12/18 12:15:51;;;;;;;16.30;7.93;;;8.50;99.90;;;;;;5034389;28;19963;-57
2021/12/18 12:18:17;;;;;;;15.13;6.53;;;8.50;99.90;;;;;;5034769;28;20041;-55
2021/12/18 12:20:48;;;;;;;16.17;6.10;;;8.50;99.90;;;;;;5035469;28;20022;-54
2021/12/18 12:23:23;;;;;;;14.63;6.88;;;8.50;99.90;;;;;;5034745;28;20025;-56
2021/12/18 12:25:51;;;;;;;14.02;7.32;;;8.50;99.90;;;;;;5034062;28;20022;-56
2021/12/18 12:28:22;;;;;;;16.38;6.47;;;8.50;99.90;;;;;;5014408;28;20026;-53
2021/12/18 12:30:50;;;;;;;16.58;6.07;;;8.40;99.90;;;;;;5020852;28;20022;-55
2021/12/18 12:33:43;;;;;;;18.52;7.55;;;8.30;99.90;;;;;;5016789;28;20034;-57
2021/12/18 12:36:26;;;;;;;15.63;6.88;;;8.10;99.90;;;;;;5013106;28;20030;-56
2021/12/18 12:38:52;;;;;;;16.20;6.82;;;8.10;99.90;;;;;;5014663;28;20030;-51
2021/12/18 12:41:26;;;;;;;21.75;7.97;;;8.20;99.90;;;;;;5015830;28;20079;-50
2021/12/18 12:43:54;;;;;;;14.27;6.95;;;8.30;99.90;;;;;;5015719;28;20025;-57
2021/12/18 12:46:21;;;;;;;16.20;7.45;;;8.50;99.90;;;;;;5014380;28;20036;-53
2021/12/18 12:49:06;;;;;;;17.17;7.72;;;8.50;99.90;;;;;;5015480;28;20026;-55
2021/12/18 12:51:57;;;;;;;17.98;7.15;;;8.40;99.90;;;;;;5014464;28;20026;-58
2021/12/18 12:54:40;;;;;;;17.25;6.60;;;8.40;99.90;;;;;;5014310;28;20094;-56
2021/12/18 12:57:28;;;;;;;15.48;6.95;;;8.30;99.90;;;;;;5014623;28;20065;-57
2021/12/18 13:00:05;;;;;;;17.60;7.00;;;8.40;99.90;;;;;;5015503;28;20029;-58
2021/12/18 13:02:34;;;;;;;14.88;6.63;;;8.50;99.90;;;;;;5015689;28;20026;-57
2021/12/18 13:05:05;;;;;;;13.38;6.88;;;8.60;99.90;;;;;;5019603;28;20045;-56
2021/12/18 13:07:31;;;;;;;14.40;6.82;;;8.60;99.90;;;;;;5033874;28;20045;-57
2021/12/18 13:09:56;;;;;;;16.63;7.40;;;8.50;99.90;;;;;;5034210;28;20076;-56
2021/12/18 13:12:22;;;;;;;14.18;6.50;;;8.30;99.90;;;;;;5034110;28;20076;-57
2021/12/18 13:14:48;;;;;;;13.80;5.93;;;8.30;99.90;;;;;;5028039;28;20021;-55
2021/12/18 13:17:24;;;;;;;17.92;7.50;;;8.20;99.90;;;;;;5026993;28;20034;-57
2021/12/18 13:19:56;;;;;;;19.52;8.27;;;8.20;99.90;;;;;;5030431;28;20030;-56
2021/12/18 13:22:28;;;;;;;19.73;7.10;;;8.30;99.90;;;;;;5014547;28;20033;-56
2021/12/18 13:25:14;;;;;;;9.45;5.07;;;8.30;99.90;;;;;;5042245;28;20075;-58
2021/12/18 13:27:43;;;;;;;7.85;3.95;;;8.40;99.90;;;;;;5054680;28;20484;-58
2021/12/18 13:30:20;;;;;;;10.63;4.45;;;8.40;99.90;;;;;;5054586;28;20021;-57
2021/12/18 13:33:05;;;;;;;7.80;4.00;;;8.30;99.90;;;;;;5054530;28;20025;-57
2021/12/18 13:35:33;;;;;;;13.10;6.47;;;8.40;99.90;;;;;;5053266;28;20079;-58